sensor_id;sensor_type;location;lat;lon;timestamp;P1;durP1;ratioP1;P2;durP2;ratioP2
34060;SDS011;20336;-33.424;-70.638;2023-05-21T00:01:04;28.10;;;14.30;;
34060;SDS011;20336;-33.424;-70.638;2023-05-21T00:03:31;32.60;;;14.20;;
34060;SDS011;20336;-33.424;-70.638;2023-05-21T00:05:58;24.77;;;13.20;;
34060;SDS011;20336;-33.424;-70.638;2023-05-21T00:08:25;27.80;;;13.70;;
34060;SDS011;20336;-33.424;-70.638;2023-05-21T00:10:52;26.77;;;14.07;;
34060;SDS011;20336;-33.424;-70.638;2023-05-21T00:13:20;28.70;;;14.23;;
34060;SDS011;20336;-33.424;-70.638;2023-05-21T00:15:47;23.57;;;12.80;;
34060;SDS011;20336;-33.424;-70.638;2023-05-21T00:18:14;27.30;;;13.03;;
34060;SDS011;20336;-33.424;-70.638;2023-05-21T00:20:41;25.37;;;13.10;;
34060;SDS011;20336;-33.424;-70.638;2023-05-21T00:23:10;21.13;;;12.13;;
34060;SDS011;20336;-33.424;-70.638;2023-05-21T00:25:37;27.17;;;13.63;;
34060;SDS011;20336;-33.424;-70.638;2023-05-21T00:28:03;33.57;;;15.57;;
34060;SDS011;20336;-33.424;-70.638;2023-05-21T00:30:30;27.23;;;15.57;;
34060;SDS011;20336;-33.424;-70.638;2023-05-21T00:32:57;29.13;;;14.80;;
34060;SDS011;20336;-33.424;-70.638;2023-05-21T00:35:27;27.70;;;14.87;;
34060;SDS011;20336;-33.424;-70.638;2023-05-21T00:37:54;30.80;;;15.03;;
34060;SDS011;20336;-33.424;-70.638;2023-05-21T00:40:21;30.73;;;16.00;;
34060;SDS011;20336;-33.424;-70.638;2023-05-21T00:42:49;27.57;;;15.40;;
34060;SDS011;20336;-33.424;-70.638;2023-05-21T00:45:16;30.73;;;15.53;;
34060;SDS011;20336;-33.424;-70.638;2023-05-21T00:47:43;32.50;;;15.37;;
34060;SDS011;20336;-33.424;-70.638;2023-05-21T00:50:12;32.30;;;15.87;;
34060;SDS011;20336;-33.424;-70.638;2023-05-21T00:52:40;30.97;;;15.17;;
34060;SDS011;20336;-33.424;-70.638;2023-05-21T00:55:08;34.17;;;17.27;;
34060;SDS011;20336;-33.424;-70.638;2023-05-21T00:57:36;31.67;;;17.10;;
34060;SDS011;20336;-33.424;-70.638;2023-05-21T01:00:03;30.43;;;17.80;;
34060;SDS011;20336;-33.424;-70.638;2023-05-21T01:02:36;37.20;;;16.63;;
34060;SDS011;20336;-33.424;-70.638;2023-05-21T01:05:03;31.87;;;16.27;;
34060;SDS011;20336;-33.424;-70.638;2023-05-21T01:07:32;33.53;;;16.83;;
34060;SDS011;20336;-33.424;-70.638;2023-05-21T01:10:00;28.87;;;15.90;;
34060;SDS011;20336;-33.424;-70.638;2023-05-21T01:12:28;32.10;;;17.30;;
34060;SDS011;20336;-33.424;-70.638;2023-05-21T01:14:57;31.93;;;16.87;;
34060;SDS011;20336;-33.424;-70.638;2023-05-21T01:17:26;34.47;;;18.50;;
34060;SDS011;20336;-33.424;-70.638;2023-05-21T01:19:53;32.00;;;16.80;;
34060;SDS011;20336;-33.424;-70.638;2023-05-21T01:22:20;35.87;;;18.80;;
34060;SDS011;20336;-33.424;-70.638;2023-05-21T01:24:49;33.90;;;18.67;;
34060;SDS011;20336;-33.424;-70.638;2023-05-21T01:27:17;36.90;;;17.90;;
34060;SDS011;20336;-33.424;-70.638;2023-05-21T01:29:44;37.10;;;20.40;;
34060;SDS011;20336;-33.424;-70.638;2023-05-21T01:34:44;40.47;;;19.17;;
34060;SDS011;20336;-33.424;-70.638;2023-05-21T01:37:20;34.53;;;18.07;;
34060;SDS011;20336;-33.424;-70.638;2023-05-21T01:39:51;33.47;;;18.13;;
34060;SDS011;20336;-33.424;-70.638;2023-05-21T01:42:19;40.23;;;17.87;;
34060;SDS011;20336;-33.424;-70.638;2023-05-21T01:44:53;30.73;;;16.77;;
34060;SDS011;20336;-33.424;-70.638;2023-05-21T01:47:23;30.87;;;16.53;;
34060;SDS011;20336;-33.424;-70.638;2023-05-21T01:49:51;31.63;;;15.73;;
34060;SDS011;20336;-33.424;-70.638;2023-05-21T01:52:18;30.23;;;16.23;;
34060;SDS011;20336;-33.424;-70.638;2023-05-21T01:54:46;38.93;;;21.00;;
34060;SDS011;20336;-33.424;-70.638;2023-05-21T01:57:14;31.63;;;15.70;;
34060;SDS011;20336;-33.424;-70.638;2023-05-21T01:59:42;26.77;;;14.33;;
34060;SDS011;20336;-33.424;-70.638;2023-05-21T02:02:09;28.53;;;15.47;;
34060;SDS011;20336;-33.424;-70.638;2023-05-21T02:04:36;34.77;;;16.97;;
34060;SDS011;20336;-33.424;-70.638;2023-05-21T02:07:06;25.37;;;13.80;;
34060;SDS011;20336;-33.424;-70.638;2023-05-21T02:09:34;26.63;;;13.53;;
34060;SDS011;20336;-33.424;-70.638;2023-05-21T02:12:01;26.33;;;12.90;;
34060;SDS011;20336;-33.424;-70.638;2023-05-21T02:14:29;24.13;;;13.83;;
34060;SDS011;20336;-33.424;-70.638;2023-05-21T02:16:58;27.83;;;14.27;;
34060;SDS011;20336;-33.424;-70.638;2023-05-21T02:19:25;26.50;;;14.87;;
34060;SDS011;20336;-33.424;-70.638;2023-05-21T02:21:53;28.60;;;14.30;;
34060;SDS011;20336;-33.424;-70.638;2023-05-21T02:24:20;30.93;;;16.53;;
34060;SDS011;20336;-33.424;-70.638;2023-05-21T02:26:49;38.50;;;17.67;;
34060;SDS011;20336;-33.424;-70.638;2023-05-21T02:29:16;30.53;;;17.00;;
34060;SDS011;20336;-33.424;-70.638;2023-05-21T02:31:43;37.73;;;19.73;;
34060;SDS011;20336;-33.424;-70.638;2023-05-21T02:34:10;32.47;;;18.30;;
34060;SDS011;20336;-33.424;-70.638;2023-05-21T02:36:37;35.67;;;18.07;;
34060;SDS011;20336;-33.424;-70.638;2023-05-21T02:39:06;37.10;;;18.37;;
34060;SDS011;20336;-33.424;-70.638;2023-05-21T02:41:33;34.83;;;17.67;;
34060;SDS011;20336;-33.424;-70.638;2023-05-21T02:44:00;33.50;;;17.53;;
34060;SDS011;20336;-33.424;-70.638;2023-05-21T02:46:27;32.50;;;18.40;;
34060;SDS011;20336;-33.424;-70.638;2023-05-21T02:48:54;37.77;;;18.60;;
34060;SDS011;20336;-33.424;-70.638;2023-05-21T02:51:21;35.97;;;19.37;;
34060;SDS011;20336;-33.424;-70.638;2023-05-21T02:53:51;33.03;;;18.33;;
34060;SDS011;20336;-33.424;-70.638;2023-05-21T02:56:19;35.00;;;18.40;;
34060;SDS011;20336;-33.424;-70.638;2023-05-21T02:58:46;35.77;;;18.30;;
34060;SDS011;20336;-33.424;-70.638;2023-05-21T03:01:13;37.07;;;17.53;;
34060;SDS011;20336;-33.424;-70.638;2023-05-21T03:03:40;31.10;;;16.33;;
34060;SDS011;20336;-33.424;-70.638;2023-05-21T03:06:07;34.87;;;18.20;;
34060;SDS011;20336;-33.424;-70.638;2023-05-21T03:08:35;35.40;;;18.33;;
34060;SDS011;20336;-33.424;-70.638;2023-05-21T03:11:02;33.33;;;18.20;;
34060;SDS011;20336;-33.424;-70.638;2023-05-21T03:13:29;34.97;;;17.40;;
34060;SDS011;20336;-33.424;-70.638;2023-05-21T03:15:56;30.60;;;17.77;;
34060;SDS011;20336;-33.424;-70.638;2023-05-21T03:18:23;34.23;;;16.67;;
34060;SDS011;20336;-33.424;-70.638;2023-05-21T03:20:53;34.13;;;16.70;;
34060;SDS011;20336;-33.424;-70.638;2023-05-21T03:23:24;30.87;;;16.17;;
34060;SDS011;20336;-33.424;-70.638;2023-05-21T03:25:51;30.40;;;16.53;;
34060;SDS011;20336;-33.424;-70.638;2023-05-21T03:28:18;32.00;;;17.43;;
34060;SDS011;20336;-33.424;-70.638;2023-05-21T03:30:55;33.80;;;17.17;;
34060;SDS011;20336;-33.424;-70.638;2023-05-21T03:33:26;32.90;;;17.97;;
34060;SDS011;20336;-33.424;-70.638;2023-05-21T03:35:53;32.80;;;17.47;;
34060;SDS011;20336;-33.424;-70.638;2023-05-21T03:38:20;29.20;;;16.20;;
34060;SDS011;20336;-33.424;-70.638;2023-05-21T03:40:47;29.17;;;15.87;;
34060;SDS011;20336;-33.424;-70.638;2023-05-21T03:43:14;33.23;;;17.43;;
34060;SDS011;20336;-33.424;-70.638;2023-05-21T03:45:41;37.47;;;16.63;;
34060;SDS011;20336;-33.424;-70.638;2023-05-21T03:48:08;26.50;;;15.50;;
34060;SDS011;20336;-33.424;-70.638;2023-05-21T03:50:35;33.10;;;15.70;;
34060;SDS011;20336;-33.424;-70.638;2023-05-21T03:53:02;32.17;;;15.80;;
34060;SDS011;20336;-33.424;-70.638;2023-05-21T03:55:29;27.90;;;15.50;;
34060;SDS011;20336;-33.424;-70.638;2023-05-21T03:57:56;28.67;;;14.67;;
34060;SDS011;20336;-33.424;-70.638;2023-05-21T04:00:23;29.33;;;15.17;;
34060;SDS011;20336;-33.424;-70.638;2023-05-21T04:02:50;37.37;;;16.33;;
34060;SDS011;20336;-33.424;-70.638;2023-05-21T04:05:17;30.07;;;16.27;;
34060;SDS011;20336;-33.424;-70.638;2023-05-21T04:07:44;31.43;;;15.87;;
34060;SDS011;20336;-33.424;-70.638;2023-05-21T04:10:11;28.73;;;16.13;;
34060;SDS011;20336;-33.424;-70.638;2023-05-21T04:12:38;35.57;;;17.27;;
34060;SDS011;20336;-33.424;-70.638;2023-05-21T04:15:05;28.43;;;14.80;;
34060;SDS011;20336;-33.424;-70.638;2023-05-21T04:17:32;26.67;;;15.20;;
34060;SDS011;20336;-33.424;-70.638;2023-05-21T04:19:59;32.60;;;16.47;;
34060;SDS011;20336;-33.424;-70.638;2023-05-21T04:22:26;35.07;;;17.50;;
34060;SDS011;20336;-33.424;-70.638;2023-05-21T04:24:53;34.83;;;17.90;;
34060;SDS011;20336;-33.424;-70.638;2023-05-21T04:27:20;33.53;;;16.03;;
34060;SDS011;20336;-33.424;-70.638;2023-05-21T04:29:50;32.40;;;17.00;;
34060;SDS011;20336;-33.424;-70.638;2023-05-21T04:32:19;29.27;;;17.17;;
34060;SDS011;20336;-33.424;-70.638;2023-05-21T04:34:46;34.43;;;17.50;;
34060;SDS011;20336;-33.424;-70.638;2023-05-21T04:37:13;36.63;;;18.53;;
34060;SDS011;20336;-33.424;-70.638;2023-05-21T04:39:42;35.30;;;18.17;;
34060;SDS011;20336;-33.424;-70.638;2023-05-21T04:42:09;44.27;;;19.50;;
34060;SDS011;20336;-33.424;-70.638;2023-05-21T04:44:37;36.37;;;17.53;;
34060;SDS011;20336;-33.424;-70.638;2023-05-21T04:47:08;28.47;;;16.33;;
34060;SDS011;20336;-33.424;-70.638;2023-05-21T04:49:36;34.37;;;17.07;;
34060;SDS011;20336;-33.424;-70.638;2023-05-21T04:52:03;29.83;;;15.87;;
34060;SDS011;20336;-33.424;-70.638;2023-05-21T04:54:30;33.07;;;16.57;;
34060;SDS011;20336;-33.424;-70.638;2023-05-21T04:56:57;28.37;;;15.73;;
34060;SDS011;20336;-33.424;-70.638;2023-05-21T04:59:24;31.50;;;15.50;;
34060;SDS011;20336;-33.424;-70.638;2023-05-21T05:01:51;29.47;;;15.57;;
34060;SDS011;20336;-33.424;-70.638;2023-05-21T05:04:17;36.03;;;18.23;;
34060;SDS011;20336;-33.424;-70.638;2023-05-21T05:06:44;36.67;;;18.90;;
34060;SDS011;20336;-33.424;-70.638;2023-05-21T05:09:11;38.83;;;19.30;;
34060;SDS011;20336;-33.424;-70.638;2023-05-21T05:11:38;40.17;;;20.27;;
34060;SDS011;20336;-33.424;-70.638;2023-05-21T05:14:05;35.93;;;18.47;;
34060;SDS011;20336;-33.424;-70.638;2023-05-21T05:16:32;31.40;;;17.37;;
34060;SDS011;20336;-33.424;-70.638;2023-05-21T05:18:59;41.37;;;18.33;;
34060;SDS011;20336;-33.424;-70.638;2023-05-21T05:21:26;35.90;;;17.90;;
34060;SDS011;20336;-33.424;-70.638;2023-05-21T05:23:53;42.77;;;19.10;;
34060;SDS011;20336;-33.424;-70.638;2023-05-21T05:26:20;32.27;;;17.67;;
34060;SDS011;20336;-33.424;-70.638;2023-05-21T05:28:47;34.20;;;17.83;;
34060;SDS011;20336;-33.424;-70.638;2023-05-21T05:31:14;38.23;;;19.13;;
34060;SDS011;20336;-33.424;-70.638;2023-05-21T05:33:41;33.07;;;17.57;;
34060;SDS011;20336;-33.424;-70.638;2023-05-21T05:36:09;34.27;;;18.77;;
34060;SDS011;20336;-33.424;-70.638;2023-05-21T05:38:37;42.60;;;18.33;;
34060;SDS011;20336;-33.424;-70.638;2023-05-21T05:41:04;34.20;;;17.67;;
34060;SDS011;20336;-33.424;-70.638;2023-05-21T05:43:31;30.40;;;17.57;;
34060;SDS011;20336;-33.424;-70.638;2023-05-21T05:45:58;38.33;;;19.13;;
34060;SDS011;20336;-33.424;-70.638;2023-05-21T05:48:25;40.23;;;20.07;;
34060;SDS011;20336;-33.424;-70.638;2023-05-21T05:50:52;38.27;;;19.27;;
34060;SDS011;20336;-33.424;-70.638;2023-05-21T05:53:19;36.70;;;19.87;;
34060;SDS011;20336;-33.424;-70.638;2023-05-21T05:55:46;34.40;;;19.17;;
34060;SDS011;20336;-33.424;-70.638;2023-05-21T05:58:13;39.47;;;22.10;;
34060;SDS011;20336;-33.424;-70.638;2023-05-21T06:00:40;46.13;;;22.17;;
34060;SDS011;20336;-33.424;-70.638;2023-05-21T06:03:07;40.83;;;21.33;;
34060;SDS011;20336;-33.424;-70.638;2023-05-21T06:05:33;42.10;;;21.80;;
34060;SDS011;20336;-33.424;-70.638;2023-05-21T06:08:00;44.10;;;20.90;;
34060;SDS011;20336;-33.424;-70.638;2023-05-21T06:10:27;40.93;;;20.70;;
34060;SDS011;20336;-33.424;-70.638;2023-05-21T06:12:54;38.23;;;20.20;;
34060;SDS011;20336;-33.424;-70.638;2023-05-21T06:15:21;35.73;;;20.17;;
34060;SDS011;20336;-33.424;-70.638;2023-05-21T06:17:48;38.10;;;19.93;;
34060;SDS011;20336;-33.424;-70.638;2023-05-21T06:20:14;42.37;;;20.90;;
34060;SDS011;20336;-33.424;-70.638;2023-05-21T06:22:41;38.50;;;20.80;;
34060;SDS011;20336;-33.424;-70.638;2023-05-21T06:25:08;35.40;;;19.33;;
34060;SDS011;20336;-33.424;-70.638;2023-05-21T06:27:36;42.87;;;22.17;;
34060;SDS011;20336;-33.424;-70.638;2023-05-21T06:30:03;41.87;;;21.50;;
34060;SDS011;20336;-33.424;-70.638;2023-05-21T06:32:30;35.83;;;19.80;;
34060;SDS011;20336;-33.424;-70.638;2023-05-21T06:34:57;36.30;;;20.43;;
34060;SDS011;20336;-33.424;-70.638;2023-05-21T06:37:23;40.13;;;19.97;;
34060;SDS011;20336;-33.424;-70.638;2023-05-21T06:39:50;40.23;;;21.23;;
34060;SDS011;20336;-33.424;-70.638;2023-05-21T06:42:17;41.73;;;20.83;;
34060;SDS011;20336;-33.424;-70.638;2023-05-21T06:44:44;51.47;;;22.17;;
34060;SDS011;20336;-33.424;-70.638;2023-05-21T06:47:11;39.00;;;21.87;;
34060;SDS011;20336;-33.424;-70.638;2023-05-21T06:49:38;59.47;;;29.13;;
34060;SDS011;20336;-33.424;-70.638;2023-05-21T06:52:05;63.03;;;31.60;;
34060;SDS011;20336;-33.424;-70.638;2023-05-21T06:54:32;55.50;;;30.40;;
34060;SDS011;20336;-33.424;-70.638;2023-05-21T06:56:59;62.90;;;31.13;;
34060;SDS011;20336;-33.424;-70.638;2023-05-21T06:59:26;55.13;;;30.27;;
34060;SDS011;20336;-33.424;-70.638;2023-05-21T07:01:52;53.00;;;29.33;;
34060;SDS011;20336;-33.424;-70.638;2023-05-21T07:04:20;51.93;;;28.40;;
34060;SDS011;20336;-33.424;-70.638;2023-05-21T07:06:49;50.60;;;27.57;;
34060;SDS011;20336;-33.424;-70.638;2023-05-21T07:09:16;50.20;;;28.50;;
34060;SDS011;20336;-33.424;-70.638;2023-05-21T07:11:43;49.23;;;26.43;;
34060;SDS011;20336;-33.424;-70.638;2023-05-21T07:14:10;54.50;;;27.20;;
34060;SDS011;20336;-33.424;-70.638;2023-05-21T07:16:37;50.40;;;26.93;;
34060;SDS011;20336;-33.424;-70.638;2023-05-21T07:19:04;48.63;;;26.67;;
34060;SDS011;20336;-33.424;-70.638;2023-05-21T07:21:31;46.63;;;25.17;;
34060;SDS011;20336;-33.424;-70.638;2023-05-21T07:23:58;49.30;;;24.87;;
34060;SDS011;20336;-33.424;-70.638;2023-05-21T07:26:24;49.70;;;26.67;;
34060;SDS011;20336;-33.424;-70.638;2023-05-21T07:28:51;51.17;;;26.80;;
34060;SDS011;20336;-33.424;-70.638;2023-05-21T07:31:18;48.87;;;26.57;;
34060;SDS011;20336;-33.424;-70.638;2023-05-21T07:33:45;55.77;;;27.10;;
34060;SDS011;20336;-33.424;-70.638;2023-05-21T07:36:12;56.50;;;28.17;;
34060;SDS011;20336;-33.424;-70.638;2023-05-21T07:38:39;51.07;;;27.30;;
34060;SDS011;20336;-33.424;-70.638;2023-05-21T07:41:06;53.10;;;29.83;;
34060;SDS011;20336;-33.424;-70.638;2023-05-21T07:43:34;55.23;;;28.93;;
34060;SDS011;20336;-33.424;-70.638;2023-05-21T07:46:01;54.83;;;27.60;;
34060;SDS011;20336;-33.424;-70.638;2023-05-21T07:48:28;50.90;;;28.53;;
34060;SDS011;20336;-33.424;-70.638;2023-05-21T07:50:56;47.77;;;26.27;;
34060;SDS011;20336;-33.424;-70.638;2023-05-21T07:53:24;47.73;;;26.10;;
34060;SDS011;20336;-33.424;-70.638;2023-05-21T07:55:51;51.50;;;28.00;;
34060;SDS011;20336;-33.424;-70.638;2023-05-21T07:58:18;62.93;;;29.23;;
34060;SDS011;20336;-33.424;-70.638;2023-05-21T08:00:46;48.10;;;25.43;;
34060;SDS011;20336;-33.424;-70.638;2023-05-21T08:03:16;50.27;;;26.40;;
34060;SDS011;20336;-33.424;-70.638;2023-05-21T08:05:43;52.33;;;26.83;;
34060;SDS011;20336;-33.424;-70.638;2023-05-21T08:08:19;47.93;;;25.87;;
34060;SDS011;20336;-33.424;-70.638;2023-05-21T08:10:46;52.73;;;25.53;;
34060;SDS011;20336;-33.424;-70.638;2023-05-21T08:13:14;53.43;;;25.63;;
34060;SDS011;20336;-33.424;-70.638;2023-05-21T08:15:41;47.43;;;26.60;;
34060;SDS011;20336;-33.424;-70.638;2023-05-21T08:18:08;49.63;;;25.57;;
34060;SDS011;20336;-33.424;-70.638;2023-05-21T08:20:36;39.57;;;24.07;;
34060;SDS011;20336;-33.424;-70.638;2023-05-21T08:23:02;52.40;;;24.97;;
34060;SDS011;20336;-33.424;-70.638;2023-05-21T08:25:30;47.07;;;24.20;;
34060;SDS011;20336;-33.424;-70.638;2023-05-21T08:27:57;41.33;;;23.40;;
34060;SDS011;20336;-33.424;-70.638;2023-05-21T08:30:23;38.47;;;21.17;;
34060;SDS011;20336;-33.424;-70.638;2023-05-21T08:32:50;43.63;;;22.97;;
34060;SDS011;20336;-33.424;-70.638;2023-05-21T08:35:19;45.03;;;23.63;;
34060;SDS011;20336;-33.424;-70.638;2023-05-21T08:37:46;44.50;;;22.90;;
34060;SDS011;20336;-33.424;-70.638;2023-05-21T08:40:13;41.83;;;22.37;;
34060;SDS011;20336;-33.424;-70.638;2023-05-21T08:42:47;40.07;;;22.27;;
34060;SDS011;20336;-33.424;-70.638;2023-05-21T08:45:16;38.00;;;21.20;;
34060;SDS011;20336;-33.424;-70.638;2023-05-21T08:47:45;41.93;;;22.07;;
34060;SDS011;20336;-33.424;-70.638;2023-05-21T08:50:13;40.37;;;21.60;;
34060;SDS011;20336;-33.424;-70.638;2023-05-21T08:52:40;37.67;;;21.10;;
34060;SDS011;20336;-33.424;-70.638;2023-05-21T08:55:07;44.07;;;21.37;;
34060;SDS011;20336;-33.424;-70.638;2023-05-21T08:57:35;43.27;;;21.00;;
34060;SDS011;20336;-33.424;-70.638;2023-05-21T09:00:02;42.77;;;21.47;;
34060;SDS011;20336;-33.424;-70.638;2023-05-21T09:02:32;39.90;;;21.27;;
34060;SDS011;20336;-33.424;-70.638;2023-05-21T09:04:59;35.93;;;20.03;;
34060;SDS011;20336;-33.424;-70.638;2023-05-21T09:07:27;40.83;;;21.37;;
34060;SDS011;20336;-33.424;-70.638;2023-05-21T09:12:22;37.63;;;19.87;;
34060;SDS011;20336;-33.424;-70.638;2023-05-21T09:14:50;37.70;;;20.37;;
34060;SDS011;20336;-33.424;-70.638;2023-05-21T09:17:17;42.43;;;20.30;;
34060;SDS011;20336;-33.424;-70.638;2023-05-21T09:22:39;37.57;;;20.07;;
34060;SDS011;20336;-33.424;-70.638;2023-05-21T09:25:07;41.77;;;20.50;;
34060;SDS011;20336;-33.424;-70.638;2023-05-21T09:27:34;43.03;;;22.60;;
34060;SDS011;20336;-33.424;-70.638;2023-05-21T09:30:08;37.90;;;21.37;;
34060;SDS011;20336;-33.424;-70.638;2023-05-21T09:32:36;44.03;;;20.73;;
34060;SDS011;20336;-33.424;-70.638;2023-05-21T09:35:13;38.73;;;20.07;;
34060;SDS011;20336;-33.424;-70.638;2023-05-21T09:37:40;47.30;;;22.90;;
34060;SDS011;20336;-33.424;-70.638;2023-05-21T09:42:50;42.20;;;21.60;;
34060;SDS011;20336;-33.424;-70.638;2023-05-21T09:45:20;40.10;;;21.67;;
34060;SDS011;20336;-33.424;-70.638;2023-05-21T09:47:48;43.67;;;21.47;;
34060;SDS011;20336;-33.424;-70.638;2023-05-21T09:50:18;41.90;;;21.40;;
34060;SDS011;20336;-33.424;-70.638;2023-05-21T09:52:46;39.83;;;22.30;;
34060;SDS011;20336;-33.424;-70.638;2023-05-21T09:55:15;40.23;;;21.70;;
34060;SDS011;20336;-33.424;-70.638;2023-05-21T09:57:42;40.87;;;20.77;;
34060;SDS011;20336;-33.424;-70.638;2023-05-21T10:00:19;41.00;;;21.90;;
34060;SDS011;20336;-33.424;-70.638;2023-05-21T10:02:47;45.00;;;21.50;;
34060;SDS011;20336;-33.424;-70.638;2023-05-21T10:05:15;45.03;;;22.37;;
34060;SDS011;20336;-33.424;-70.638;2023-05-21T10:07:43;41.87;;;21.73;;
34060;SDS011;20336;-33.424;-70.638;2023-05-21T10:10:11;45.17;;;23.07;;
34060;SDS011;20336;-33.424;-70.638;2023-05-21T10:12:42;43.53;;;21.40;;
34060;SDS011;20336;-33.424;-70.638;2023-05-21T10:15:12;41.57;;;21.00;;
34060;SDS011;20336;-33.424;-70.638;2023-05-21T10:17:41;41.87;;;21.00;;
34060;SDS011;20336;-33.424;-70.638;2023-05-21T10:20:11;44.50;;;21.23;;
34060;SDS011;20336;-33.424;-70.638;2023-05-21T10:22:39;39.30;;;19.80;;
34060;SDS011;20336;-33.424;-70.638;2023-05-21T10:25:06;40.90;;;20.23;;
34060;SDS011;20336;-33.424;-70.638;2023-05-21T10:27:34;40.50;;;18.93;;
34060;SDS011;20336;-33.424;-70.638;2023-05-21T10:30:02;43.60;;;21.00;;
34060;SDS011;20336;-33.424;-70.638;2023-05-21T10:32:30;39.50;;;19.97;;
34060;SDS011;20336;-33.424;-70.638;2023-05-21T10:34:57;38.43;;;20.20;;
34060;SDS011;20336;-33.424;-70.638;2023-05-21T10:37:24;38.53;;;19.67;;
34060;SDS011;20336;-33.424;-70.638;2023-05-21T10:39:52;40.90;;;20.30;;
34060;SDS011;20336;-33.424;-70.638;2023-05-21T10:47:39;43.63;;;21.17;;
34060;SDS011;20336;-33.424;-70.638;2023-05-21T10:52:48;49.70;;;21.43;;
34060;SDS011;20336;-33.424;-70.638;2023-05-21T11:00:32;48.57;;;21.30;;
34060;SDS011;20336;-33.424;-70.638;2023-05-21T11:02:59;41.60;;;21.73;;
34060;SDS011;20336;-33.424;-70.638;2023-05-21T11:08:22;44.63;;;24.13;;
34060;SDS011;20336;-33.424;-70.638;2023-05-21T11:10:50;48.13;;;24.50;;
34060;SDS011;20336;-33.424;-70.638;2023-05-21T11:13:18;42.30;;;23.47;;
34060;SDS011;20336;-33.424;-70.638;2023-05-21T11:21:03;39.30;;;22.83;;
34060;SDS011;20336;-33.424;-70.638;2023-05-21T11:26:16;40.63;;;22.97;;
34060;SDS011;20336;-33.424;-70.638;2023-05-21T11:28:43;43.70;;;22.00;;
34060;SDS011;20336;-33.424;-70.638;2023-05-21T11:31:25;43.80;;;21.67;;
34060;SDS011;20336;-33.424;-70.638;2023-05-21T11:36:37;34.17;;;21.00;;
34060;SDS011;20336;-33.424;-70.638;2023-05-21T11:39:07;47.30;;;22.67;;
34060;SDS011;20336;-33.424;-70.638;2023-05-21T11:47:08;50.93;;;22.30;;
34060;SDS011;20336;-33.424;-70.638;2023-05-21T11:49:35;44.03;;;24.10;;
34060;SDS011;20336;-33.424;-70.638;2023-05-21T11:52:03;42.07;;;22.77;;
34060;SDS011;20336;-33.424;-70.638;2023-05-21T11:54:31;53.90;;;24.57;;
34060;SDS011;20336;-33.424;-70.638;2023-05-21T11:57:04;40.47;;;22.57;;
34060;SDS011;20336;-33.424;-70.638;2023-05-21T11:59:34;48.47;;;24.13;;
34060;SDS011;20336;-33.424;-70.638;2023-05-21T12:02:02;45.03;;;24.00;;
34060;SDS011;20336;-33.424;-70.638;2023-05-21T12:04:30;41.67;;;22.33;;
34060;SDS011;20336;-33.424;-70.638;2023-05-21T12:06:57;43.40;;;23.83;;
34060;SDS011;20336;-33.424;-70.638;2023-05-21T12:09:23;47.23;;;24.63;;
34060;SDS011;20336;-33.424;-70.638;2023-05-21T12:11:51;45.90;;;24.67;;
34060;SDS011;20336;-33.424;-70.638;2023-05-21T12:14:18;50.23;;;24.70;;
34060;SDS011;20336;-33.424;-70.638;2023-05-21T12:16:47;41.17;;;23.57;;
34060;SDS011;20336;-33.424;-70.638;2023-05-21T12:19:16;45.90;;;24.77;;
34060;SDS011;20336;-33.424;-70.638;2023-05-21T12:21:43;46.50;;;23.57;;
34060;SDS011;20336;-33.424;-70.638;2023-05-21T12:24:10;51.10;;;24.57;;
34060;SDS011;20336;-33.424;-70.638;2023-05-21T12:26:37;41.80;;;23.37;;
34060;SDS011;20336;-33.424;-70.638;2023-05-21T12:29:06;48.97;;;24.43;;
34060;SDS011;20336;-33.424;-70.638;2023-05-21T12:31:33;49.73;;;25.67;;
34060;SDS011;20336;-33.424;-70.638;2023-05-21T12:34:12;48.40;;;24.93;;
34060;SDS011;20336;-33.424;-70.638;2023-05-21T12:36:41;43.33;;;24.07;;
34060;SDS011;20336;-33.424;-70.638;2023-05-21T12:39:13;44.73;;;23.27;;
34060;SDS011;20336;-33.424;-70.638;2023-05-21T12:41:41;51.80;;;24.73;;
34060;SDS011;20336;-33.424;-70.638;2023-05-21T12:44:10;47.10;;;22.80;;
34060;SDS011;20336;-33.424;-70.638;2023-05-21T12:46:37;39.60;;;22.13;;
34060;SDS011;20336;-33.424;-70.638;2023-05-21T12:49:03;39.13;;;21.80;;
34060;SDS011;20336;-33.424;-70.638;2023-05-21T12:51:37;42.33;;;22.63;;
34060;SDS011;20336;-33.424;-70.638;2023-05-21T12:54:10;48.03;;;23.70;;
34060;SDS011;20336;-33.424;-70.638;2023-05-21T12:56:44;44.83;;;24.77;;
34060;SDS011;20336;-33.424;-70.638;2023-05-21T12:59:14;44.83;;;25.67;;
34060;SDS011;20336;-33.424;-70.638;2023-05-21T13:01:41;47.97;;;27.17;;
34060;SDS011;20336;-33.424;-70.638;2023-05-21T13:04:08;48.90;;;26.77;;
34060;SDS011;20336;-33.424;-70.638;2023-05-21T13:06:41;53.50;;;27.50;;
34060;SDS011;20336;-33.424;-70.638;2023-05-21T13:09:08;42.27;;;25.57;;
34060;SDS011;20336;-33.424;-70.638;2023-05-21T13:11:35;51.87;;;26.10;;
34060;SDS011;20336;-33.424;-70.638;2023-05-21T13:14:02;48.67;;;25.73;;
34060;SDS011;20336;-33.424;-70.638;2023-05-21T13:16:29;45.30;;;23.90;;
34060;SDS011;20336;-33.424;-70.638;2023-05-21T13:18:56;57.63;;;25.90;;
34060;SDS011;20336;-33.424;-70.638;2023-05-21T13:21:22;51.83;;;26.40;;
34060;SDS011;20336;-33.424;-70.638;2023-05-21T13:23:49;53.03;;;26.37;;
34060;SDS011;20336;-33.424;-70.638;2023-05-21T13:26:16;52.97;;;27.13;;
34060;SDS011;20336;-33.424;-70.638;2023-05-21T13:28:43;47.47;;;25.63;;
34060;SDS011;20336;-33.424;-70.638;2023-05-21T13:31:10;50.70;;;26.47;;
34060;SDS011;20336;-33.424;-70.638;2023-05-21T13:33:38;49.13;;;26.33;;
34060;SDS011;20336;-33.424;-70.638;2023-05-21T13:36:06;45.13;;;25.90;;
34060;SDS011;20336;-33.424;-70.638;2023-05-21T13:38:33;53.23;;;26.27;;
34060;SDS011;20336;-33.424;-70.638;2023-05-21T13:41:00;43.13;;;24.67;;
34060;SDS011;20336;-33.424;-70.638;2023-05-21T13:43:27;45.67;;;25.27;;
34060;SDS011;20336;-33.424;-70.638;2023-05-21T13:45:54;44.33;;;25.60;;
34060;SDS011;20336;-33.424;-70.638;2023-05-21T13:48:21;43.73;;;24.17;;
34060;SDS011;20336;-33.424;-70.638;2023-05-21T13:50:47;45.73;;;24.33;;
34060;SDS011;20336;-33.424;-70.638;2023-05-21T13:53:14;46.30;;;24.57;;
34060;SDS011;20336;-33.424;-70.638;2023-05-21T13:55:41;44.63;;;24.13;;
34060;SDS011;20336;-33.424;-70.638;2023-05-21T13:58:08;44.37;;;24.77;;
34060;SDS011;20336;-33.424;-70.638;2023-05-21T14:00:35;47.90;;;26.13;;
34060;SDS011;20336;-33.424;-70.638;2023-05-21T14:03:02;48.33;;;25.23;;
34060;SDS011;20336;-33.424;-70.638;2023-05-21T14:05:31;43.67;;;24.97;;
34060;SDS011;20336;-33.424;-70.638;2023-05-21T14:07:58;51.90;;;26.37;;
34060;SDS011;20336;-33.424;-70.638;2023-05-21T14:10:26;44.40;;;25.77;;
34060;SDS011;20336;-33.424;-70.638;2023-05-21T14:12:52;49.77;;;26.33;;
34060;SDS011;20336;-33.424;-70.638;2023-05-21T14:15:19;51.60;;;27.47;;
34060;SDS011;20336;-33.424;-70.638;2023-05-21T14:17:46;47.30;;;26.30;;
34060;SDS011;20336;-33.424;-70.638;2023-05-21T14:20:13;47.77;;;24.80;;
34060;SDS011;20336;-33.424;-70.638;2023-05-21T14:22:40;50.37;;;24.37;;
34060;SDS011;20336;-33.424;-70.638;2023-05-21T14:25:07;48.10;;;24.80;;
34060;SDS011;20336;-33.424;-70.638;2023-05-21T14:27:34;48.73;;;25.27;;
34060;SDS011;20336;-33.424;-70.638;2023-05-21T14:30:02;49.10;;;24.87;;